Time;durP1;ratioP1;P1;durP2;ratioP2;P2;SDS_P1;SDS_P2;PMS_P1;PMS_P2;Temp;Humidity;BMP_temperature;BMP_pressure;BME280_temperature;BME280_humidity;BME280_pressure;Samples;Min_cycle;Max_cycle;Signal;HPM_P1;HPM_P2
2022/09/08 00:00:30;;;;;;;;;;;;;;;-155.54;100.00;57697.75;4999909;28;20000;-67
2022/09/08 00:02:55;;;;;;;;;;;;;;;-155.54;100.00;57697.75;5002569;28;20076;-66
2022/09/08 00:05:22;;;;;;;;;;;;;;;-155.54;100.00;57697.75;4998943;28;20391;-66
2022/09/08 00:07:48;;;;;;;;;;;;;;;-155.54;100.00;57697.75;5001476;28;19970;-67
2022/09/08 00:10:13;;;;;;;;;;;;;;;-155.54;100.00;57697.75;5000219;28;20032;-66
2022/09/08 00:12:42;;;;;;;;;;;;;;;-155.54;100.00;57697.75;5003567;28;19998;-66
2022/09/08 00:15:08;;;;;;;;;;;;;;;-155.54;100.00;57697.75;4983736;28;20658;-66
2022/09/08 00:17:33;;;;;;;;;;;;;;;-155.54;100.00;57697.75;5003943;28;20024;-67
2022/09/08 00:19:58;;;;;;;;;;;;;;;-155.54;100.00;57697.75;5002256;28;20009;-66
2022/09/08 00:22:24;;;;;;;;;;;;;;;-155.54;100.00;57697.75;5002401;28;20033;-67
2022/09/08 00:24:49;;;;;;;;;;;;;;;-155.54;100.00;57697.75;4997992;28;19997;-66
2022/09/08 00:27:14;;;;;;;;;;;;;;;-155.54;100.00;57697.75;4998218;28;20446;-66
2022/09/08 00:29:39;;;;;;;;;;;;;;;-155.54;100.00;57697.75;4999006;28;20125;-66
2022/09/08 00:32:05;;;;;;;;;;;;;;;-155.54;100.00;57697.75;5003511;28;20008;-66
2022/09/08 00:34:30;;;;;;;;;;;;;;;-155.54;100.00;57697.75;5003368;28;19970;-66
2022/09/08 00:36:58;;;;;;;;;;;;;;;-155.54;100.00;57697.75;5002714;28;19997;-65
2022/09/08 00:39:23;;;;;;;;;;;;;;;-155.54;100.00;57697.75;4999396;28;20495;-66
2022/09/08 00:41:49;;;;;;;;;;;;;;;-155.54;100.00;57697.75;5000328;28;20029;-66
2022/09/08 00:44:34;;;;;;;;;;;;;;;-155.54;100.00;57697.75;5000599;28;19981;-65
2022/09/08 00:46:59;;;;;;;;;;;;;;;-155.54;100.00;57697.75;5002389;28;20565;-66
2022/09/08 00:49:24;;;;;;;;;;;;;;;-155.54;100.00;57697.75;4979493;28;19994;-67
2022/09/08 00:51:50;;;;;;;;;;;;;;;-155.54;100.00;57697.75;4999268;28;20116;-67
2022/09/08 00:54:16;;;;;;;;;;;;;;;-155.54;100.00;57697.75;4984081;28;19994;-66
2022/09/08 00:56:41;;;;;;;;;;;;;;;-155.54;100.00;57697.75;4967870;28;19992;-66
2022/09/08 00:59:07;;;;;;;;;;;;;;;-155.54;100.00;57697.75;5001284;28;19980;-66
2022/09/08 01:01:32;;;;;;;;;;;;;;;-155.54;100.00;57697.75;5002461;28;20552;-66
2022/09/08 01:03:58;;;;;;;;;;;;;;;-155.54;100.00;57697.75;4984381;28;20112;-67
2022/09/08 01:12:43;;;;;;;;;;;;;;;-155.54;100.00;57697.75;4999906;28;20422;-66
2022/09/08 01:14:45;;;;;;;;;;;;;;;-155.54;100.00;57697.75;4985044;28;20000;-66
2022/09/08 01:17:14;;;;;;;;;;;;;;;-155.54;100.00;57697.75;5002822;28;20500;-66
2022/09/08 01:19:39;;;;;;;;;;;;;;;-155.54;100.00;57697.75;5000156;28;20005;-66
2022/09/08 01:22:13;;;;;;;;;;;;;;;-155.54;100.00;57697.75;4998999;28;19987;-66
2022/09/08 01:24:51;;;;;;;;;;;;;;;-155.54;100.00;57697.75;5000142;28;19993;-66
2022/09/08 01:27:36;;;;;;;;;;;;;;;-155.54;100.00;57697.75;4997200;28;20475;-66
2022/09/08 01:30:03;;;;;;;;;;;;;;;-155.54;100.00;57697.75;4997044;28;20440;-67
2022/09/08 01:32:29;;;;;;;;;;;;;;;-155.54;100.00;57697.75;4976519;28;20473;-67
2022/09/08 01:34:54;;;;;;;;;;;;;;;-155.54;100.00;57697.75;4984246;28;20060;-66
2022/09/08 01:37:19;;;;;;;;;;;;;;;-155.54;100.00;57697.75;5000803;28;20088;-66
2022/09/08 01:39:45;;;;;;;;;;;;;;;-155.54;100.00;57697.75;5000691;28;20032;-67
2022/09/08 01:42:10;;;;;;;;;;;;;;;-155.54;100.00;57697.75;4999237;28;20509;-66
2022/09/08 01:44:35;;;;;;;;;;;;;;;-155.54;100.00;57697.75;4984152;28;20084;-66
2022/09/08 01:47:01;;;;;;;;;;;;;;;-155.54;100.00;57697.75;5000762;28;20009;-65
2022/09/08 01:49:26;;;;;;;;;;;;;;;-155.54;100.00;57697.75;4996581;28;20043;-67
2022/09/08 01:51:51;;;;;;;;;;;;;;;-155.54;100.00;57697.75;5000570;28;20263;-65
2022/09/08 01:54:17;;;;;;;;;;;;;;;-155.54;100.00;57697.75;4997098;28;20087;-66
2022/09/08 01:56:42;;;;;;;;;;;;;;;-155.54;100.00;57697.75;5000981;28;19986;-66
2022/09/08 01:59:07;;;;;;;;;;;;;;;-155.54;100.00;57697.75;5000352;28;20576;-66
2022/09/08 02:01:32;;;;;;;;;;;;;;;-155.54;100.00;57697.75;4998096;28;20091;-67
2022/09/08 02:03:58;;;;;;;;;;;;;;;-155.54;100.00;57697.75;4999045;28;20001;-65
2022/09/08 02:06:23;;;;;;;;;;;;;;;-155.54;100.00;57697.75;5001324;28;20006;-66
2022/09/08 02:08:52;;;;;;;;;;;;;;;-155.54;100.00;57697.75;4998002;28;20033;-67
2022/09/08 02:11:17;;;;;;;;;;;;;;;-155.54;100.00;57697.75;5001347;28;20495;-65
2022/09/08 02:13:43;;;;;;;;;;;;;;;-155.54;100.00;57697.75;5000571;28;20056;-67
2022/09/08 02:16:09;;;;;;;;;;;;;;;-155.54;100.00;57697.75;4998962;28;19974;-66
2022/09/08 02:18:34;;;;;;;;;;;;;;;-155.54;100.00;57697.75;5000520;28;20013;-66
2022/09/08 02:21:03;;;;;;;;;;;;;;;-155.54;100.00;57697.75;4998384;28;20037;-66
2022/09/08 02:23:29;;;;;;;;;;;;;;;-155.54;100.00;57697.75;4995718;28;19977;-66
2022/09/08 02:25:54;;;;;;;;;;;;;;;-155.54;100.00;57697.75;5000486;28;20468;-66
2022/09/08 02:28:19;;;;;;;;;;;;;;;-155.54;100.00;57697.75;4997321;28;20024;-66
2022/09/08 02:30:45;;;;;;;;;;;;;;;-155.54;100.00;57697.75;4998377;28;19977;-66
2022/09/08 02:33:10;;;;;;;;;;;;;;;-155.54;100.00;57697.75;4996845;28;20504;-66
2022/09/08 02:35:35;;;;;;;;;;;;;;;-155.54;100.00;57697.75;4983662;28;20009;-66
2022/09/08 02:38:01;;;;;;;;;;;;;;;-155.54;100.00;57697.75;4999667;28;19994;-67
2022/09/08 02:40:26;;;;;;;;;;;;;;;-155.54;100.00;57697.75;4993871;28;20104;-66
2022/09/08 02:42:51;;;;;;;;;;;;;;;-155.54;100.00;57697.75;5002318;28;20016;-67
2022/09/08 02:45:16;;;;;;;;;;;;;;;-155.54;100.00;57697.75;5001584;28;20324;-66
2022/09/08 02:47:42;;;;;;;;;;;;;;;-155.54;100.00;57697.75;5001564;28;20140;-66
2022/09/08 02:50:07;;;;;;;;;;;;;;;-155.54;100.00;57697.75;5002017;28;19990;-66
2022/09/08 02:52:32;;;;;;;;;;;;;;;-155.54;100.00;57697.75;5004338;28;20156;-65
2022/09/08 02:54:58;;;;;;;;;;;;;;;-155.54;100.00;57697.75;5003389;28;20020;-66
2022/09/08 02:57:23;;;;;;;;;;;;;;;-155.54;100.00;57697.75;5005256;28;19994;-67
2022/09/08 02:59:48;;;;;;;;;;;;;;;-155.54;100.00;57697.75;5001947;28;20060;-67
2022/09/08 03:02:14;;;;;;;;;;;;;;;-155.54;100.00;57697.75;5005568;28;20033;-66
2022/09/08 03:04:39;;;;;;;;;;;;;;;-155.54;100.00;57697.75;5001731;28;20095;-67
2022/09/08 03:07:05;;;;;;;;;;;;;;;-155.54;100.00;57697.75;5002547;28;20354;-66
2022/09/08 03:09:30;;;;;;;;;;;;;;;-155.54;100.00;57697.75;5001125;28;19994;-67
2022/09/08 03:11:55;;;;;;;;;;;;;;;-155.54;100.00;57697.75;5004377;28;20346;-65
2022/09/08 03:14:21;;;;;;;;;;;;;;;-155.54;100.00;57697.75;5000996;28;20044;-67
2022/09/08 03:16:46;;;;;;;;;;;;;;;-155.54;100.00;57697.75;5005221;28;20002;-66
2022/09/08 03:19:11;;;;;;;;;;;;;;;-155.54;100.00;57697.75;5004242;28;19965;-66
2022/09/08 03:21:37;;;;;;;;;;;;;;;-155.54;100.00;57697.75;5002681;28;20078;-66
2022/09/08 03:24:02;;;;;;;;;;;;;;;-155.54;100.00;57697.75;5000513;28;20487;-66
2022/09/08 03:26:27;;;;;;;;;;;;;;;-155.54;100.00;57697.75;5003618;28;20002;-66
2022/09/08 03:28:53;;;;;;;;;;;;;;;-155.54;100.00;57697.75;4985739;28;19986;-66
2022/09/08 03:31:19;;;;;;;;;;;;;;;-155.54;100.00;57697.75;4986242;28;19970;-65
2022/09/08 03:33:44;;;;;;;;;;;;;;;-155.54;100.00;57697.75;5002355;28;20242;-66
2022/09/08 03:36:10;;;;;;;;;;;;;;;-155.54;100.00;57697.75;5003020;28;19969;-66
2022/09/08 03:38:35;;;;;;;;;;;;;;;-155.54;100.00;57697.75;4984480;28;20237;-66
2022/09/08 03:41:04;;;;;;;;;;;;;;;-155.54;100.00;57697.75;5002213;28;20261;-66
2022/09/08 03:43:29;;;;;;;;;;;;;;;-155.54;100.00;57697.75;5002302;28;20036;-66
2022/09/08 03:45:54;;;;;;;;;;;;;;;-155.54;100.00;57697.75;5001584;28;20051;-66
2022/09/08 03:48:19;;;;;;;;;;;;;;;-155.54;100.00;57697.75;5001845;28;20002;-66
2022/09/08 03:50:45;;;;;;;;;;;;;;;-155.54;100.00;57697.75;5002665;28;20178;-66
2022/09/08 03:53:10;;;;;;;;;;;;;;;-155.54;100.00;57697.75;5002722;28;19994;-66
2022/09/08 03:55:39;;;;;;;;;;;;;;;-155.54;100.00;57697.75;5001173;28;19980;-66
2022/09/08 03:58:04;;;;;;;;;;;;;;;-155.54;100.00;57697.75;5003322;28;20001;-66
2022/09/08 04:00:29;;;;;;;;;;;;;;;-155.54;100.00;57697.75;5001741;28;20004;-66
2022/09/08 04:02:55;;;;;;;;;;;;;;;-155.54;100.00;57697.75;5001301;28;19973;-66
2022/09/08 04:05:21;;;;;;;;;;;;;;;-155.54;100.00;57697.75;5001881;28;19997;-66
2022/09/08 04:07:46;;;;;;;;;;;;;;;-155.54;100.00;57697.75;5001431;28;20540;-66
2022/09/08 04:10:12;;;;;;;;;;;;;;;-155.54;100.00;57697.75;5002618;28;20067;-67
2022/09/08 04:12:37;;;;;;;;;;;;;;;-155.54;100.00;57697.75;5003053;28;20464;-66
2022/09/08 04:15:02;;;;;;;;;;;;;;;-155.54;100.00;57697.75;5000663;28;20016;-66
2022/09/08 04:17:28;;;;;;;;;;;;;;;-155.54;100.00;57697.75;5001744;28;20025;-66
2022/09/08 04:19:53;;;;;;;;;;;;;;;-155.54;100.00;57697.75;5000808;28;20017;-66
2022/09/08 04:22:18;;;;;;;;;;;;;;;-155.54;100.00;57697.75;5001596;28;20120;-65
2022/09/08 04:24:44;;;;;;;;;;;;;;;-155.54;100.00;57697.75;4999689;28;20277;-66
2022/09/08 04:27:10;;;;;;;;;;;;;;;-155.54;100.00;57697.75;5000414;28;20478;-66
2022/09/08 04:29:35;;;;;;;;;;;;;;;-155.54;100.00;57697.75;4984055;28;19993;-66
2022/09/08 04:32:00;;;;;;;;;;;;;;;-155.54;100.00;57697.75;5002948;28;19988;-65
2022/09/08 04:34:26;;;;;;;;;;;;;;;-155.54;100.00;57697.75;5003417;28;20059;-66
2022/09/08 04:36:51;;;;;;;;;;;;;;;-155.54;100.00;57697.75;5001971;28;20349;-66
2022/09/08 04:39:16;;;;;;;;;;;;;;;-155.54;100.00;57697.75;5003773;28;20005;-65
2022/09/08 04:41:41;;;;;;;;;;;;;;;-155.54;100.00;57697.75;5001621;28;20441;-66
2022/09/08 04:44:07;;;;;;;;;;;;;;;-155.54;100.00;57697.75;5002731;28;20071;-66
2022/09/08 04:46:32;;;;;;;;;;;;;;;-155.54;100.00;57697.75;5001583;28;20017;-66
2022/09/08 04:48:57;;;;;;;;;;;;;;;-155.54;100.00;57697.75;4997010;28;20076;-66
2022/09/08 04:51:23;;;;;;;;;;;;;;;-155.54;100.00;57697.75;5000751;28;19974;-66
2022/09/08 04:53:48;;;;;;;;;;;;;;;-155.54;100.00;57697.75;4981090;28;20015;-66
2022/09/08 04:56:15;;;;;;;;;;;;;;;-155.54;100.00;57697.75;4984901;28;20314;-67
2022/09/08 04:58:41;;;;;;;;;;;;;;;-155.54;100.00;57697.75;5001409;28;20068;-66
2022/09/08 05:01:07;;;;;;;;;;;;;;;-155.54;100.00;57697.75;5003275;28;20426;-66
2022/09/08 05:03:33;;;;;;;;;;;;;;;-155.54;100.00;57697.75;4984903;28;19997;-66
2022/09/08 05:06:05;;;;;;;;;;;;;;;-155.54;100.00;57697.75;5001799;28;20036;-66
2022/09/08 05:08:30;;;;;;;;;;;;;;;-155.54;100.00;57697.75;5001907;28;20483;-66
2022/09/08 05:10:55;;;;;;;;;;;;;;;-155.54;100.00;57697.75;5000800;28;20068;-66
2022/09/08 05:13:20;;;;;;;;;;;;;;;-155.54;100.00;57697.75;4998639;28;19990;-66
2022/09/08 05:15:46;;;;;;;;;;;;;;;-155.54;100.00;57697.75;5000657;28;20039;-66
2022/09/08 05:18:11;;;;;;;;;;;;;;;-155.54;100.00;57697.75;5000853;28;20000;-66
2022/09/08 05:20:36;;;;;;;;;;;;;;;-155.54;100.00;57697.75;4998104;28;20002;-66
2022/09/08 05:23:02;;;;;;;;;;;;;;;-155.54;100.00;57697.75;4998611;28;19974;-66
2022/09/08 05:25:27;;;;;;;;;;;;;;;-155.54;100.00;57697.75;4988996;28;20000;-66
2022/09/08 05:27:52;;;;;;;;;;;;;;;-155.54;100.00;57697.75;4992900;28;19978;-66
2022/09/08 05:30:17;;;;;;;;;;;;;;;-155.54;100.00;57697.75;4994391;28;20021;-66
2022/09/08 05:32:43;;;;;;;;;;;;;;;-155.54;100.00;57697.75;4995186;28;20509;-67
2022/09/08 05:35:08;;;;;;;;;;;;;;;-155.54;100.00;57697.75;4976669;28;20087;-66
2022/09/08 05:37:34;;;;;;;;;;;;;;;-155.54;100.00;57697.75;4998598;28;20102;-66
2022/09/08 05:39:59;;;;;;;;;;;;;;;-155.54;100.00;57697.75;4991410;28;20063;-66
2022/09/08 05:42:24;;;;;;;;;;;;;;;-155.54;100.00;57697.75;4996436;28;20267;-66
2022/09/08 05:44:50;;;;;;;;;;;;;;;-155.54;100.00;57697.75;5000235;28;20037;-67
2022/09/08 05:47:15;;;;;;;;;;;;;;;-155.54;100.00;57697.75;4994242;28;20033;-66
2022/09/08 05:49:40;;;;;;;;;;;;;;;-155.54;100.00;57697.75;4990174;28;19990;-66
2022/09/08 05:52:05;;;;;;;;;;;;;;;-155.54;100.00;57697.75;5000108;28;19974;-67
2022/09/08 05:54:31;;;;;;;;;;;;;;;-155.54;100.00;57697.75;4985430;28;20017;-65
2022/09/08 05:56:56;;;;;;;;;;;;;;;-155.54;100.00;57697.75;4997627;28;20401;-66
2022/09/08 05:59:21;;;;;;;;;;;;;;;-155.54;100.00;57697.75;4986533;28;20020;-66
2022/09/08 06:01:47;;;;;;;;;;;;;;;-155.54;100.00;57697.75;4994930;28;20405;-66
2022/09/08 06:04:12;;;;;;;;;;;;;;;-155.54;100.00;57697.75;4991505;28;20381;-66
2022/09/08 06:06:37;;;;;;;;;;;;;;;-155.54;100.00;57697.75;4993472;28;20088;-66
2022/09/08 06:09:03;;;;;;;;;;;;;;;-155.54;100.00;57697.75;4991374;28;20506;-66
2022/09/08 06:11:28;;;;;;;;;;;;;;;-155.54;100.00;57697.75;4997939;28;20003;-66
2022/09/08 06:13:54;;;;;;;;;;;;;;;-155.54;100.00;57697.75;4990571;28;20036;-66
2022/09/08 06:16:19;;;;;;;;;;;;;;;-155.54;100.00;57697.75;4995370;28;19998;-66
2022/09/08 06:18:45;;;;;;;;;;;;;;;-155.54;100.00;57697.75;4998563;28;20028;-66
2022/09/08 06:21:14;;;;;;;;;;;;;;;-155.54;100.00;57697.75;4998063;28;20002;-66
2022/09/08 06:23:39;;;;;;;;;;;;;;;-155.54;100.00;57697.75;4997491;28;20430;-66
2022/09/08 06:26:16;;;;;;;;;;;;;;;-155.54;100.00;57697.75;4993038;28;20012;-66
2022/09/08 06:28:44;;;;;;;;;;;;;;;-155.54;100.00;57697.75;4973165;28;20075;-67
2022/09/08 06:31:09;;;;;;;;;;;;;;;-155.54;100.00;57697.75;4975763;28;20489;-66
2022/09/08 06:33:37;;;;;;;;;;;;;;;-155.54;100.00;57697.75;4977082;28;20101;-74
2022/09/08 06:36:19;;;;;;;;;;;;;;;-155.54;100.00;57697.75;4967742;28;19974;-76
2022/09/08 06:38:56;;;;;;;;;;;;;;;-155.54;100.00;57697.75;5001191;28;19998;-75
2022/09/08 06:41:22;;;;;;;;;;;;;;;-155.54;100.00;57697.75;4981713;28;20024;-74
2022/09/08 06:43:51;;;;;;;;;;;;;;;-155.54;100.00;57697.75;4999194;28;20354;-74
2022/09/08 06:46:20;;;;;;;;;;;;;;;-155.54;100.00;57697.75;4981440;28;20036;-75
2022/09/08 06:48:46;;;;;;;;;;;;;;;-155.54;100.00;57697.75;4994335;28;20030;-75
2022/09/08 06:51:31;;;;;;;;;;;;;;;-155.54;100.00;57697.75;4977002;28;20012;-74
2022/09/08 06:53:57;;;;;;;;;;;;;;;-155.54;100.00;57697.75;4979585;28;20001;-74
2022/09/08 06:56:30;;;;;;;;;;;;;;;-155.54;100.00;57697.75;4975100;28;20018;-77
2022/09/08 06:59:00;;;;;;;;;;;;;;;-155.54;100.00;57697.75;4980175;28;19966;-73
2022/09/08 07:01:31;;;;;;;;;;;;;;;-155.54;100.00;57697.75;4958750;28;19994;-76
2022/09/08 07:03:59;;;;;;;;;;;;;;;-155.54;100.00;57697.75;4968552;28;19969;-70
2022/09/08 07:06:25;;;;;;;;;;;;;;;-155.54;100.00;57697.75;4974404;28;20518;-70
2022/09/08 07:08:56;;;;;;;;;;;;;;;-155.54;100.00;57697.75;4971445;28;19998;-70
2022/09/08 07:11:39;;;;;;;;;;;;;;;-155.54;100.00;57697.75;4978273;28;20342;-71
2022/09/08 07:14:05;;;;;;;;;;;;;;;-155.54;100.00;57697.75;4977889;28;19994;-72
2022/09/08 07:16:33;;;;;;;;;;;;;;;-155.54;100.00;57697.75;4972245;28;19998;-72
2022/09/08 07:18:59;;;;;;;;;;;;;;;-155.54;100.00;57697.75;4974964;28;20010;-73
2022/09/08 07:21:28;;;;;;;;;;;;;;;-155.54;100.00;57697.75;4956012;28;20005;-72
2022/09/08 07:23:53;;;;;;;;;;;;;;;-155.54;100.00;57697.75;4976154;28;19977;-73
2022/09/08 07:26:25;;;;;;;;;;;;;;;-155.54;100.00;57697.75;4977125;28;19990;-72
2022/09/08 07:31:53;;;;;;;;;;;;;;;-155.54;100.00;57697.75;4968578;28;19985;-71
2022/09/08 07:34:22;;;;;;;;;;;;;;;-155.54;100.00;57697.75;4980015;28;20473;-73
2022/09/08 07:37:14;;;;;;;;;;;;;;;-155.54;100.00;57697.75;4972062;28;20095;-71
2022/09/08 07:39:40;;;;;;;;;;;;;;;-155.54;100.00;57697.75;4975755;28;20470;-71
2022/09/08 07:42:06;;;;;;;;;;;;;;;-155.54;100.00;57697.75;4983292;28;20263;-71
2022/09/08 07:44:33;;;;;;;;;;;;;;;-155.54;100.00;57697.75;4984630;28;20508;-69
2022/09/08 07:46:58;;;;;;;;;;;;;;;-155.54;100.00;57697.75;4976784;28;19997;-65
2022/09/08 07:49:36;;;;;;;;;;;;;;;-155.54;100.00;57697.75;4992872;28;20470;-63
2022/09/08 07:52:13;;;;;;;;;;;;;;;-155.54;100.00;57697.75;4984296;28;19974;-68
2022/09/08 07:54:48;;;;;;;;;;;;;;;-155.54;100.00;57697.75;4985938;28;20184;-68
2022/09/08 07:57:29;;;;;;;;;;;;;;;-155.54;100.00;57697.75;4983321;28;20448;-69
2022/09/08 08:00:02;;;;;;;;;;;;;;;-155.54;100.00;57697.75;5000749;28;19978;-68
2022/09/08 08:02:50;;;;;;;;;;;;;;;-155.54;100.00;57697.75;4997625;28;19990;-69
2022/09/08 08:05:18;;;;;;;;;;;;;;;-155.54;100.00;57697.75;4984091;28;20046;-70
2022/09/08 08:07:44;;;;;;;;;;;;;;;-155.54;100.00;57697.75;4997072;28;19985;-68
2022/09/08 08:10:09;;;;;;;;;;;;;;;-155.54;100.00;57697.75;4996598;28;19986;-69
2022/09/08 08:12:44;;;;;;;;;;;;;;;-155.54;100.00;57697.75;4998882;28;20004;-69
2022/09/08 08:15:12;;;;;;;;;;;;;;;-155.54;100.00;57697.75;4993780;28;19965;-64
2022/09/08 08:17:45;;;;;;;;;;;;;;;-155.54;100.00;57697.75;4997822;28;20386;-69
2022/09/08 08:20:26;;;;;;;;;;;;;;;-155.54;100.00;57697.75;4996351;28;19966;-70
2022/09/08 08:23:11;;;;;;;;;;;;;;;-155.54;100.00;57697.75;4977963;28;20416;-69
2022/09/08 08:25:38;;;;;;;;;;;;;;;-155.54;100.00;57697.75;4992750;28;19993;-70
2022/09/08 08:28:11;;;;;;;;;;;;;;;-155.54;100.00;57697.75;4994704;28;20439;-70
2022/09/08 08:30:37;;;;;;;;;;;;;;;-155.54;100.00;57697.75;4977939;28;20597;-69
2022/09/08 08:33:03;;;;;;;;;;;;;;;-155.54;100.00;57697.75;4977494;28;19994;-69
2022/09/08 08:35:44;;;;;;;;;;;;;;;-155.54;100.00;57697.75;4980314;28;20068;-70
2022/09/08 08:38:12;;;;;;;;;;;;;;;-155.54;100.00;57697.75;4989703;28;20407;-71
2022/09/08 08:40:45;;;;;;;;;;;;;;;-155.54;100.00;57697.75;4995301;28;20513;-69
2022/09/08 08:43:29;;;;;;;;;;;;;;;-155.54;100.00;57697.75;4977625;28;19970;-71
2022/09/08 08:46:10;;;;;;;;;;;;;;;-155.54;100.00;57697.75;4995369;28;20487;-72
2022/09/08 08:48:54;;;;;;;;;;;;;;;-155.54;100.00;57697.75;4978246;28;20377;-71
2022/09/08 08:51:38;;;;;;;;;;;;;;;-155.54;100.00;57697.75;4997251;28;20024;-71
2022/09/08 08:54:22;;;;;;;;;;;;;;;-155.54;100.00;57697.75;4997684;28;20000;-64
2022/09/08 08:56:57;;;;;;;;;;;;;;;-155.54;100.00;57697.75;4992969;28;20219;-69
2022/09/08 08:59:38;;;;;;;;;;;;;;;-155.54;100.00;57697.75;4992601;28;20438;-65
2022/09/08 09:02:09;;;;;;;;;;;;;;;-155.54;100.00;57697.75;4978900;28;20461;-69
2022/09/08 09:04:48;;;;;;;;;;;;;;;-155.54;100.00;57697.75;4996915;28;20063;-71
2022/09/08 09:07:16;;;;;;;;;;;;;;;-155.54;100.00;57697.75;4999253;28;19989;-70
2022/09/08 09:09:52;;;;;;;;;;;;;;;-155.54;100.00;57697.75;4999763;28;20002;-71
2022/09/08 09:12:17;;;;;;;;;;;;;;;-155.54;100.00;57697.75;4977776;28;20454;-69
2022/09/08 09:15:00;;;;;;;;;;;;;;;-155.54;100.00;57697.75;4994932;28;19977;-70
2022/09/08 09:17:45;;;;;;;;;;;;;;;-155.54;100.00;57697.75;4986564;28;20353;-69
2022/09/08 09:20:19;;;;;;;;;;;;;;;-155.54;100.00;57697.75;4977269;28;20286;-71
2022/09/08 09:22:54;;;;;;;;;;;;;;;-155.54;100.00;57697.75;4990501;28;19972;-70
2022/09/08 09:25:25;;;;;;;;;;;;;;;-155.54;100.00;57697.75;4996168;28;20347;-70
2022/09/08 09:28:09;;;;;;;;;;;;;;;-155.54;100.00;57697.75;4990977;28;20486;-71
2022/09/08 09:30:55;;;;;;;;;;;;;;;-155.54;100.00;57697.75;4991625;28;20455;-70
2022/09/08 09:33:24;;;;;;;;;;;;;;;-155.54;100.00;57697.75;4982924;28;19921;-70
2022/09/08 09:35:49;;;;;;;;;;;;;;;-155.54;100.00;57697.75;4996454;28;19929;-69
2022/09/08 09:38:33;;;;;;;;;;;;;;;-155.54;100.00;57697.75;5001769;28;19921;-70
2022/09/08 09:40:58;;;;;;;;;;;;;;;-155.54;100.00;57697.75;5000947;28;19927;-71
2022/09/08 09:43:59;;;;;;;;;;;;;;;-155.54;100.00;57697.75;4982787;28;20706;-70
2022/09/08 09:46:54;;;;;;;;;;;;;;;-155.54;100.00;57697.75;4957048;28;19930;-70
2022/09/08 09:49:38;;;;;;;;;;;;;;;-155.54;100.00;57697.75;4964667;28;19936;-71
2022/09/08 09:52:24;;;;;;;;;;;;;;;-155.54;100.00;57697.75;4997428;28;19917;-71
2022/09/08 09:55:08;;;;;;;;;;;;;;;-155.54;100.00;57697.75;4995557;28;19931;-70
2022/09/08 09:57:42;;;;;;;;;;;;;;;-155.54;100.00;57697.75;4995741;28;19921;-70
2022/09/08 10:00:12;;;;;;;;;;;;;;;-155.54;100.00;57697.75;5001025;28;20024;-70
2022/09/08 10:02:37;;;;;;;;;;;;;;;-155.54;100.00;57697.75;4997644;28;19959;-71
2022/09/08 10:05:21;;;;;;;;;;;;;;;-155.54;100.00;57697.75;4999650;28;20263;-71
2022/09/08 10:07:57;;;;;;;;;;;;;;;-155.54;100.00;57697.75;4977670;28;20028;-72
2022/09/08 10:10:25;;;;;;;;;;;;;;;-155.54;100.00;57697.75;4987201;28;19995;-72
2022/09/08 10:13:09;;;;;;;;;;;;;;;-155.54;100.00;57697.75;4979296;28;20394;-69
2022/09/08 10:15:40;;;;;;;;;;;;;;;-155.54;100.00;57697.75;4996107;28;19956;-71
2022/09/08 10:18:25;;;;;;;;;;;;;;;-155.54;100.00;57697.75;4993046;28;19929;-69
2022/09/08 10:20:56;;;;;;;;;;;;;;;-155.54;100.00;57697.75;4978370;28;20458;-69
2022/09/08 10:23:51;;;;;;;;;;;;;;;-155.54;100.00;57697.75;4978241;28;20406;-71
2022/09/08 10:26:52;;;;;;;;;;;;;;;-155.54;100.00;57697.75;4973729;28;19929;-71
2022/09/08 10:29:36;;;;;;;;;;;;;;;-155.54;100.00;57697.75;4941845;28;19954;-72
2022/09/08 10:32:19;;;;;;;;;;;;;;;-155.54;100.00;57697.75;4984718;28;20442;-69
2022/09/08 10:35:03;;;;;;;;;;;;;;;-155.54;100.00;57697.75;4996444;28;19932;-72
2022/09/08 10:38:04;;;;;;;;;;;;;;;-155.54;100.00;57697.75;4992913;28;19926;-69
2022/09/08 10:40:47;;;;;;;;;;;;;;;-155.54;100.00;57697.75;4951866;28;19926;-70
2022/09/08 10:43:25;;;;;;;;;;;;;;;-155.54;100.00;57697.75;4992555;28;19976;-70
2022/09/08 10:46:04;;;;;;;;;;;;;;;-155.54;100.00;57697.75;4998236;28;19922;-70
2022/09/08 10:48:48;;;;;;;;;;;;;;;-155.54;100.00;57697.75;4979835;28;19941;-70
2022/09/08 10:51:32;;;;;;;;;;;;;;;-155.54;100.00;57697.75;4997891;28;20070;-71
2022/09/08 10:53:57;;;;;;;;;;;;;;;-155.54;100.00;57697.75;4997595;28;20327;-69
2022/09/08 10:56:25;;;;;;;;;;;;;;;-155.54;100.00;57697.75;4996160;28;19914;-70
2022/09/08 10:59:09;;;;;;;;;;;;;;;-155.54;100.00;57697.75;4999570;28;19960;-70
2022/09/08 11:01:34;;;;;;;;;;;;;;;-155.54;100.00;57697.75;4997845;28;20345;-71
2022/09/08 11:04:00;;;;;;;;;;;;;;;-155.54;100.00;57697.75;4998093;28;19917;-68
2022/09/08 11:06:25;;;;;;;;;;;;;;;-155.54;100.00;57697.75;4994124;28;19933;-70
2022/09/08 11:08:53;;;;;;;;;;;;;;;-155.54;100.00;57697.75;4999120;28;19921;-70
2022/09/08 11:11:56;;;;;;;;;;;;;;;-155.54;100.00;57697.75;4994242;28;19920;-70
2022/09/08 11:14:34;;;;;;;;;;;;;;;-155.54;100.00;57697.75;4954892;28;19949;-70
2022/09/08 11:17:02;;;;;;;;;;;;;;;-155.54;100.00;57697.75;4960384;28;19929;-67
2022/09/08 11:19:35;;;;;;;;;;;;;;;-155.54;100.00;57697.75;4977721;28;20353;-68
2022/09/08 11:22:09;;;;;;;;;;;;;;;-155.54;100.00;57697.75;4994759;28;20000;-68
2022/09/08 11:24:38;;;;;;;;;;;;;;;-155.54;100.00;57697.75;4996699;28;19994;-68
2022/09/08 11:27:13;;;;;;;;;;;;;;;-155.54;100.00;57697.75;4992840;28;19930;-69
2022/09/08 11:29:38;;;;;;;;;;;;;;;-155.54;100.00;57697.75;5000626;28;20551;-69
2022/09/08 11:32:15;;;;;;;;;;;;;;;-155.54;100.00;57697.75;5002568;28;19962;-69
2022/09/08 11:35:01;;;;;;;;;;;;;;;-155.54;100.00;57697.75;5002129;28;19914;-67
2022/09/08 11:37:29;;;;;;;;;;;;;;;-155.54;100.00;57697.75;4998375;28;20032;-69
2022/09/08 11:40:13;;;;;;;;;;;;;;;-155.54;100.00;57697.75;4999247;28;19917;-69
2022/09/08 11:42:41;;;;;;;;;;;;;;;-155.54;100.00;57697.75;4995140;28;19991;-68
2022/09/08 11:45:11;;;;;;;;;;;;;;;-155.54;100.00;57697.75;4999230;28;20230;-69
2022/09/08 11:47:48;;;;;;;;;;;;;;;-155.54;100.00;57697.75;4984006;28;19921;-68
2022/09/08 11:50:20;;;;;;;;;;;;;;;-155.54;100.00;57697.75;4984323;28;19921;-67
2022/09/08 11:52:45;;;;;;;;;;;;;;;-155.54;100.00;57697.75;5002274;28;20408;-69
2022/09/08 11:55:16;;;;;;;;;;;;;;;-155.54;100.00;57697.75;5002028;28;19918;-67
2022/09/08 11:57:47;;;;;;;;;;;;;;;-155.54;100.00;57697.75;5000529;28;19925;-68
2022/09/08 12:00:13;;;;;;;;;;;;;;;-155.54;100.00;57697.75;5000144;28;19924;-68
2022/09/08 12:02:53;;;;;;;;;;;;;;;-155.54;100.00;57697.75;4998650;28;20338;-68
2022/09/08 12:05:25;;;;;;;;;;;;;;;-155.54;100.00;57697.75;4992595;28;19953;-68
2022/09/08 12:07:56;;;;;;;;;;;;;;;-155.54;100.00;57697.75;4999647;28;19948;-68
2022/09/08 12:10:31;;;;;;;;;;;;;;;-155.54;100.00;57697.75;5003668;28;19932;-68
2022/09/08 12:13:00;;;;;;;;;;;;;;;-155.54;100.00;57697.75;4991246;28;19929;-69
2022/09/08 12:15:44;;;;;;;;;;;;;;;-155.54;100.00;57697.75;4996858;28;19926;-67
2022/09/08 12:18:31;;;;;;;;;;;;;;;-155.54;100.00;57697.75;4994762;28;20406;-68
2022/09/08 12:21:15;;;;;;;;;;;;;;;-155.54;100.00;57697.75;4982058;28;19929;-69
2022/09/08 12:23:52;;;;;;;;;;;;;;;-155.54;100.00;57697.75;4993939;28;20230;-68
2022/09/08 12:26:21;;;;;;;;;;;;;;;-155.54;100.00;57697.75;4979668;28;20013;-68
2022/09/08 12:28:59;;;;;;;;;;;;;;;-155.54;100.00;57697.75;4994986;28;20375;-68
2022/09/08 12:31:34;;;;;;;;;;;;;;;-155.54;100.00;57697.75;4998361;28;20145;-67
2022/09/08 12:34:17;;;;;;;;;;;;;;;-155.54;100.00;57697.75;4996331;28;19969;-68
2022/09/08 12:36:43;;;;;;;;;;;;;;;-155.54;100.00;57697.75;4998748;28;20374;-68
2022/09/08 12:39:26;;;;;;;;;;;;;;;-155.54;100.00;57697.75;4997680;28;19928;-68
2022/09/08 12:42:01;;;;;;;;;;;;;;;-155.54;100.00;57697.75;4997255;28;19929;-68